Weather at Jomo Kenyatta International Airport

Public forecast

Using degrees Celsius for public forecast. Weather courtesy of forecast.io.

Current aviation weather report (METAR) for Jomo Kenyatta International Airport

Retrieved 2022/08/09 06:30 UTC (45 minutes ago):

HKJK 090630Z 18004KT 090V230 9999 BKN019 16/11 Q1025 NOSIG

Aviation forecast (TAF) for Jomo Kenyatta International Airport

Retrieved 2022/08/09 06:03 UTC (1 hour ago):

TAF TAF HKJK 090500Z 0906/1012 18005KT BKN024 BECMG 1000/1004 27005KT BKN015 BECMG 1008/1011 BKN024